Airport ICAO


00:48 UTC

0°C

Broken clouds


An affordable passengers' Moving Map for your aircraft. Made for the iPad and the iPhone
More information here

EGLL Heathrow


London UNITED KINGDOM   VFR


METAR EGLL 230020Z AUTO 02004KT 350V050 9000 BKN032 00/M02 Q1023 NOSIG 0h28min

TAF EGLL 222252Z 2300/2406 06006KT 9999 SCT030 TEMPO 2300/2308 8000 1h56min





NOTAMS

OPEN